createdAt,value
2022-08-25T00:04:57.494Z,17.70
2022-08-25T00:10:26.238Z,17.60
2022-08-25T00:15:54.636Z,17.60
2022-08-25T00:21:23.654Z,17.50
2022-08-25T00:26:55.409Z,17.50
2022-08-25T00:32:24.563Z,17.50
2022-08-25T00:37:52.359Z,17.30
2022-08-25T00:43:20.331Z,17.20
2022-08-25T00:48:54.125Z,17.10
2022-08-25T00:54:32.776Z,17.10
2022-08-25T01:00:01.420Z,17.10
2022-08-25T01:05:31.325Z,17.00
2022-08-25T01:11:05.523Z,17.00
2022-08-25T01:16:38.726Z,17.00
2022-08-25T01:22:07.519Z,16.90
2022-08-25T01:27:35.525Z,16.90
2022-08-25T01:33:07.079Z,16.90
2022-08-25T01:38:34.910Z,16.90
2022-08-25T01:44:07.357Z,16.80
2022-08-25T01:49:42.531Z,16.80
2022-08-25T01:55:10.305Z,16.70
2022-08-25T02:00:38.276Z,16.70
2022-08-25T02:06:07.850Z,16.60
2022-08-25T02:11:39.186Z,16.50
2022-08-25T02:17:07.812Z,16.50
2022-08-25T02:22:35.925Z,16.50
2022-08-25T02:28:04.330Z,16.50
2022-08-25T02:33:41.455Z,16.40
2022-08-25T02:39:10.841Z,16.30
2022-08-25T02:44:38.787Z,16.30
2022-08-25T02:50:08.992Z,16.20
2022-08-25T02:55:37.159Z,16.20
2022-08-25T03:01:06.036Z,16.10
2022-08-25T03:06:34.529Z,16.10
2022-08-25T03:12:02.579Z,16.00
2022-08-25T03:17:30.548Z,15.90
2022-08-25T03:23:07.261Z,15.90
2022-08-25T03:28:45.391Z,15.80
2022-08-25T03:34:18.647Z,15.80
2022-08-25T03:39:46.590Z,15.80
2022-08-25T03:45:17.343Z,15.70
2022-08-25T03:50:51.527Z,15.70
2022-08-25T03:56:20.364Z,15.70
2022-08-25T04:01:54.027Z,15.60
2022-08-25T04:07:22.862Z,15.70
2022-08-25T04:12:50.754Z,15.70
2022-08-25T04:18:18.545Z,15.60
2022-08-25T04:23:49.055Z,15.60
2022-08-25T04:29:28.145Z,15.60
2022-08-25T04:34:59.176Z,15.60
2022-08-25T04:40:29.062Z,15.50
2022-08-25T04:45:57.469Z,15.50
2022-08-25T04:51:40.460Z,15.40
2022-08-25T04:57:08.270Z,15.50
2022-08-25T05:02:36.250Z,15.50
2022-08-25T05:08:06.661Z,15.50
2022-08-25T05:13:36.221Z,15.60
2022-08-25T05:19:04.927Z,15.70
2022-08-25T05:24:32.834Z,15.80
2022-08-25T05:30:00.627Z,16.00
2022-08-25T05:35:28.522Z,16.10
2022-08-25T05:41:03.118Z,16.30
2022-08-25T05:46:31.763Z,16.40
2022-08-25T05:51:59.907Z,16.60
2022-08-25T05:57:27.733Z,16.80
2022-08-25T06:02:55.577Z,17.00
2022-08-25T06:08:24.196Z,17.10
2022-08-25T06:13:51.965Z,17.30
2022-08-25T06:19:19.848Z,17.40
2022-08-25T06:24:48.196Z,17.60
2022-08-25T06:30:24.141Z,17.70
2022-08-25T06:35:59.576Z,18.00
2022-08-25T06:41:27.633Z,18.20
2022-08-25T06:47:05.095Z,18.40
2022-08-25T06:52:33.401Z,18.60
2022-08-25T06:58:03.391Z,18.80
2022-08-25T07:03:32.762Z,19.00
2022-08-25T07:09:00.600Z,19.30
2022-08-25T07:14:28.614Z,19.50
2022-08-25T07:19:57.514Z,19.70
2022-08-25T07:25:25.565Z,19.90
2022-08-25T07:30:53.438Z,20.10
2022-08-25T07:36:22.538Z,20.30
2022-08-25T07:41:52.016Z,20.50
2022-08-25T07:47:20.327Z,20.70
2022-08-25T07:52:55.289Z,20.80
2022-08-25T07:58:24.249Z,20.90
2022-08-25T08:03:53.263Z,21.10
2022-08-25T08:09:21.140Z,21.30
2022-08-25T08:14:49.466Z,21.50
2022-08-25T08:20:17.849Z,21.70
2022-08-25T08:25:51.578Z,21.90
2022-08-25T08:31:24.270Z,22.10
2022-08-25T08:36:54.575Z,22.20
2022-08-25T08:42:47.308Z,22.30
2022-08-25T08:48:20.711Z,22.40
2022-08-25T08:53:54.997Z,22.50
2022-08-25T08:59:33.259Z,22.70
2022-08-25T09:05:08.739Z,22.90
2022-08-25T09:10:45.760Z,23.10
2022-08-25T09:16:56.417Z,23.20
2022-08-25T09:22:38.084Z,23.40
2022-08-25T09:28:51.501Z,23.50
2022-08-25T09:34:23.159Z,23.80
2022-08-25T09:39:51.453Z,24.10
2022-08-25T09:45:34.637Z,24.40
2022-08-25T09:51:42.668Z,24.30
2022-08-25T09:57:34.559Z,24.60
2022-08-25T10:03:14.211Z,24.70
2022-08-25T10:08:46.933Z,25.10
2022-08-25T10:14:22.871Z,25.40
2022-08-25T10:20:11.767Z,25.60
2022-08-25T10:25:59.294Z,25.70
2022-08-25T10:32:00.613Z,25.80
2022-08-25T10:37:43.808Z,25.90
2022-08-25T10:44:02.011Z,26.30
2022-08-25T10:49:56.254Z,26.30
2022-08-25T10:55:54.209Z,26.30
2022-08-25T11:01:47.939Z,26.50
2022-08-25T11:07:29.810Z,27.00
2022-08-25T11:13:01.966Z,27.30
2022-08-25T11:18:32.028Z,27.40
2022-08-25T11:24:29.141Z,27.40
2022-08-25T11:30:15.831Z,27.60
2022-08-25T11:35:51.441Z,27.70
2022-08-25T11:41:58.137Z,27.30
2022-08-25T11:48:25.368Z,27.50
2022-08-25T11:54:27.503Z,27.60
2022-08-25T12:00:14.761Z,27.60
2022-08-25T12:06:14.390Z,27.70
2022-08-25T12:11:43.114Z,27.60
2022-08-25T12:17:25.109Z,28.00
2022-08-25T12:22:57.005Z,28.30
2022-08-25T12:29:07.570Z,28.40
2022-08-25T12:35:10.290Z,28.60
2022-08-25T12:40:45.410Z,28.80
2022-08-25T12:46:27.564Z,29.00
2022-08-25T12:52:20.119Z,28.60
2022-08-25T12:57:58.782Z,28.20
2022-08-25T13:04:12.666Z,28.00
2022-08-25T13:10:15.972Z,28.00
2022-08-25T13:16:02.275Z,28.10
2022-08-25T13:21:38.661Z,28.20
2022-08-25T13:27:10.723Z,28.20
2022-08-25T13:32:39.598Z,28.30
2022-08-25T13:38:19.567Z,28.50
2022-08-25T13:43:47.903Z,28.60
2022-08-25T13:49:26.662Z,28.70
2022-08-25T13:55:00.793Z,29.00
2022-08-25T14:00:43.169Z,29.40
2022-08-25T14:06:17.124Z,30.00
2022-08-25T14:11:56.595Z,30.40
2022-08-25T14:17:39.138Z,31.10
2022-08-25T14:23:16.144Z,32.10
2022-08-25T14:28:46.993Z,34.00
2022-08-25T14:34:39.570Z,32.80
2022-08-25T14:40:12.675Z,34.60
2022-08-25T14:45:48.234Z,35.70
2022-08-25T14:51:19.091Z,34.10
2022-08-25T14:56:49.911Z,33.10
2022-08-25T15:02:20.291Z,31.80
2022-08-25T15:08:07.288Z,31.80
2022-08-25T15:13:35.793Z,30.80
2022-08-25T15:19:11.826Z,30.00
2022-08-25T15:24:39.699Z,29.30
2022-08-25T15:30:09.184Z,29.00
2022-08-25T15:35:41.627Z,28.60
2022-08-25T15:41:12.858Z,28.30
2022-08-25T15:46:41.735Z,28.20
2022-08-25T15:52:15.110Z,28.20
2022-08-25T15:57:43.567Z,28.10
2022-08-25T16:03:12.442Z,27.90
2022-08-25T16:08:41.228Z,27.70
2022-08-25T16:14:12.081Z,27.50
2022-08-25T16:19:41.800Z,27.40
2022-08-25T16:25:10.818Z,27.30
2022-08-25T16:30:42.774Z,27.20
2022-08-25T16:36:22.780Z,27.10
2022-08-25T16:41:52.221Z,27.00
2022-08-25T16:47:25.214Z,26.90
2022-08-25T16:53:13.616Z,26.70
2022-08-25T16:58:41.636Z,26.50
2022-08-25T17:04:13.765Z,26.40
2022-08-25T17:09:41.895Z,26.20
2022-08-25T17:15:10.121Z,26.00
2022-08-25T17:20:38.433Z,25.90
2022-08-25T17:26:07.054Z,25.80
2022-08-25T17:31:43.151Z,25.60
2022-08-25T17:37:12.119Z,25.50
2022-08-25T17:42:40.826Z,25.40
2022-08-25T17:48:09.998Z,25.30
2022-08-25T17:53:38.657Z,25.20
2022-08-25T17:59:06.886Z,25.10
2022-08-25T18:04:35.718Z,25.00
2022-08-25T18:10:08.895Z,24.80
2022-08-25T18:15:36.925Z,24.70
2022-08-25T18:21:05.817Z,24.60
2022-08-25T18:26:35.440Z,24.50
2022-08-25T18:32:04.980Z,24.30
2022-08-25T18:37:53.402Z,24.20
2022-08-25T18:43:21.490Z,24.10
2022-08-25T18:48:52.836Z,24.00
2022-08-25T18:54:23.307Z,23.80
2022-08-25T18:59:52.928Z,23.80
2022-08-25T19:05:31.912Z,23.60
2022-08-25T19:11:01.035Z,23.60
2022-08-25T19:16:47.004Z,23.50
2022-08-25T19:22:31.794Z,23.40
2022-08-25T19:28:07.122Z,23.30
2022-08-25T19:33:44.135Z,23.30
2022-08-25T19:39:16.482Z,23.20
2022-08-25T19:44:45.132Z,23.10
2022-08-25T19:50:16.724Z,23.00
2022-08-25T19:55:44.925Z,23.00
2022-08-25T20:01:13.035Z,22.90
2022-08-25T20:06:48.261Z,22.80
2022-08-25T20:12:17.916Z,22.70
2022-08-25T20:17:46.173Z,22.60
2022-08-25T20:23:32.699Z,22.60
2022-08-25T20:29:00.788Z,22.50
2022-08-25T20:34:32.657Z,22.40
2022-08-25T20:40:02.269Z,22.40
2022-08-25T20:45:33.467Z,22.30
2022-08-25T20:51:09.401Z,22.20
2022-08-25T20:56:38.623Z,22.20
2022-08-25T21:02:06.884Z,22.10
2022-08-25T21:07:38.186Z,22.00
2022-08-25T21:13:08.155Z,22.00
2022-08-25T21:18:36.828Z,21.90
2022-08-25T21:24:09.735Z,21.80
2022-08-25T21:29:38.443Z,21.80
2022-08-25T21:35:13.298Z,21.60
2022-08-25T21:40:44.904Z,21.60
2022-08-25T21:46:19.469Z,21.50
2022-08-25T21:51:47.338Z,21.40
2022-08-25T21:57:23.534Z,21.30
2022-08-25T22:02:56.241Z,21.20
2022-08-25T22:08:24.188Z,21.20
2022-08-25T22:14:00.685Z,21.10
2022-08-25T22:19:28.719Z,21.00
2022-08-25T22:24:56.602Z,20.90
2022-08-25T22:30:26.102Z,20.90
2022-08-25T22:35:59.756Z,20.80
2022-08-25T22:41:30.278Z,20.80
2022-08-25T22:46:58.257Z,20.70
2022-08-25T22:52:33.594Z,20.70
2022-08-25T22:58:02.520Z,20.60
2022-08-25T23:03:30.980Z,20.50
2022-08-25T23:09:04.644Z,20.50
2022-08-25T23:14:42.214Z,20.40
2022-08-25T23:20:31.113Z,20.30
2022-08-25T23:25:59.069Z,20.20
2022-08-25T23:31:26.965Z,20.20
2022-08-25T23:36:57.106Z,20.10
2022-08-25T23:42:25.151Z,20.10
2022-08-25T23:47:53.222Z,20.10
2022-08-25T23:53:21.521Z,20.00
2022-08-25T23:58:49.537Z,20.00
